메인 페이지
METAR-TAF:

METAR-TAF

공항 :

알마티 국제공항

알마티, 카자흐스탄

위도: 43-14N, 경도: 076-56E, 고도: 847m

현재 날씨관측

예보는 15분 전, 23:30시(UTC)에 발표되었습니다.
6kt
온도 8°C
습도 49%
기압 1007 hPa
시정 10km 이상
고도 10000ft 상공 흐림

METAR: UAAA 312330Z 28003MPS 9999 OVC100 08/M02 Q1007 R23L/CLRD65 NOSIG

시각: 05:45 (23:45 UTC)

예보

예보는 45분 전, 23:00시(UTC)에 발표되었습니다.
예보 대상 시간: 01일 00시부터 01일 24시까지 (UTC)
6kt, 순간 최대 풍속 16kt
시정 10km 이상
고도 5000ft 상공 구름 많음, 적란운.
고도 10000ft 상공 구름 많음
일시적
01일 00시부터 01일 03시까지 (UTC)
남남서6kt
전환 중
01일 08시부터 01일 09시까지 (UTC)
시정: 5000m
고도 2000ft 상공 구름 많음, 적란운.
고도 10000ft 상공 흐림
약한소나기, 박무
확률 40% :
일시적
01일 08시부터 01일 12시까지 (UTC)
뇌우
일시적
01일 14시부터 01일 24시까지 (UTC)
서남서6kt, 순간 최대 풍속 19kt
시정: 2000m
소나기, 박무

TAF: UAAA 312300Z 0100/0124 28003G08MPS 9999 BKN050CB BKN100 TX16/0108Z TN05/0101Z TEMPO 0100/0103 20003MPS BECMG 0108/0109 5000 -SHRA BR BKN020CB OVC100 PROB40 TEMPO 0108/0112 TS TEMPO 0114/0124 24003G10MPS 2000 SHRA BR

4,000개 이상의 공항 관측 자료 및 예보 (METAR 및 TAF 보고).

지도상에서 검색 가능한 기상관측소가 노란 점과 빨간 점으로 표시되어 있습니다.

기상관측소 명을 보려면 표시 위로 마우스를 이동하세요.

날씨 관측과 예보를 보려면 클릭하세요.

지도 변경 : 확대하려면 엑스 표시가 있는 녹색 버튼, 축소하려면 빼기 표시가 있는 녹색 버튼, 다음 페이지의 지도를 보려면 녹색 화살표를 클릭하세요.


METAR-TAF: